Terminal Aerodrome Forecast
Issued by NWS

Home | Current Version | Previous Version | Text Only | Print | Product List | Glossary On
Versions: 1 2 3 4 5 6 7 8 9 10 11 12 13 14 15 16 17 18 19 20 21 22 23 24 25 26 27
000
FTUS44 KMOB 042333
TAFBFM
TAF
KBFM 042333Z 0500/0524 VRB04KT P6SM SKC
     FM051600 06005KT P6SM FEW030 PROB30 0518/0521 5SM -TSRA
      BKN030CB
     FM052100 16007KT P6SM VCTS SCT035CB PROB30 0521/0524 5SM -TSRA
      BKN035CB=

USA.gov is the U.S. government's official web portal to all federal, state and local government web resources and services.